Time;durP1;ratioP1;P1;durP2;ratioP2;P2;SDS_P1;SDS_P2;PMS_P1;PMS_P2;Temp;Humidity;BMP_temperature;BMP_pressure;BME280_temperature;BME280_humidity;BME280_pressure;Samples;Min_cycle;Max_cycle;Signal;HPM_P1;HPM_P2
2022/10/25 00:01:40;;;;;;;10.95;8.55;;;16.10;99.90;;;;;;5076113;28;20347;-63
2022/10/25 00:04:05;;;;;;;8.20;7.05;;;16.00;99.90;;;;;;5076202;28;20024;-64
2022/10/25 00:06:31;;;;;;;9.63;7.45;;;16.00;99.90;;;;;;5075787;28;20221;-62
2022/10/25 00:08:57;;;;;;;14.15;8.95;;;16.00;99.90;;;;;;5075534;28;20017;-63
2022/10/25 00:11:30;;;;;;;10.63;7.88;;;16.10;99.90;;;;;;5075665;28;20032;-62
2022/10/25 00:13:58;;;;;;;10.90;8.50;;;16.10;99.90;;;;;;5075887;28;20124;-62
2022/10/25 00:16:28;;;;;;;10.25;7.80;;;15.90;99.90;;;;;;5075539;28;20036;-63
2022/10/25 00:18:54;;;;;;;9.85;7.15;;;15.90;99.90;;;;;;5075690;28;20028;-64
2022/10/25 00:21:20;;;;;;;8.15;6.35;;;16.00;99.90;;;;;;5075531;28;20020;-62
2022/10/25 00:23:46;;;;;;;9.05;6.80;;;16.00;99.90;;;;;;5075224;28;20017;-63
2022/10/25 00:26:12;;;;;;;7.75;6.38;;;16.00;99.90;;;;;;5075359;28;20142;-63
2022/10/25 00:28:39;;;;;;;7.15;5.53;;;16.00;99.90;;;;;;5075554;28;20020;-62
2022/10/25 00:31:10;;;;;;;7.65;5.65;;;16.00;99.90;;;;;;5075050;28;20070;-63
2022/10/25 00:33:37;;;;;;;7.15;5.28;;;16.00;99.90;;;;;;5075277;28;20016;-63
2022/10/25 00:36:04;;;;;;;8.32;6.03;;;16.00;99.90;;;;;;5075380;28;20021;-63
2022/10/25 00:38:30;;;;;;;8.30;5.60;;;16.00;99.90;;;;;;5074954;28;20056;-62
2022/10/25 00:40:56;;;;;;;6.90;5.15;;;15.90;99.90;;;;;;5075211;28;20047;-62
2022/10/25 00:43:38;;;;;;;9.00;5.72;;;15.90;99.90;;;;;;5075116;28;20021;-63
2022/10/25 00:46:22;;;;;;;6.45;5.25;;;15.90;99.90;;;;;;5075188;28;20025;-62
2022/10/25 00:48:56;;;;;;;9.43;5.90;;;15.80;99.90;;;;;;5075006;28;20020;-62
2022/10/25 00:51:29;;;;;;;6.60;5.53;;;15.80;99.90;;;;;;5075258;28;20379;-62
2022/10/25 00:53:55;;;;;;;8.47;5.33;;;15.80;99.90;;;;;;5074889;28;20028;-63
2022/10/25 00:56:28;;;;;;;8.48;5.97;;;15.80;99.90;;;;;;5074572;28;20264;-63
2022/10/25 00:58:59;;;;;;;11.80;6.97;;;15.80;99.90;;;;;;5074930;28;20070;-63
2022/10/25 01:01:25;;;;;;;6.32;5.40;;;15.70;99.90;;;;;;5074730;28;20020;-63
2022/10/25 01:03:54;;;;;;;7.15;5.35;;;15.60;99.90;;;;;;5074918;28;20032;-62
2022/10/25 01:06:28;;;;;;;9.23;6.88;;;15.60;99.90;;;;;;5074515;28;20020;-62
2022/10/25 01:08:56;;;;;;;9.05;7.30;;;15.60;99.90;;;;;;5074557;28;20043;-63
2022/10/25 01:11:21;;;;;;;13.10;9.60;;;15.50;99.90;;;;;;5074571;28;20111;-62
2022/10/25 01:13:48;;;;;;;11.40;8.63;;;15.50;99.90;;;;;;5074513;28;20552;-63
2022/10/25 01:16:34;;;;;;;14.45;8.95;;;15.50;99.90;;;;;;5074626;28;20028;-63
2022/10/25 01:19:16;;;;;;;10.20;7.10;;;15.40;99.90;;;;;;5074458;28;20147;-64
2022/10/25 01:21:50;;;;;;;7.95;6.15;;;15.40;99.90;;;;;;5074093;28;20044;-63
2022/10/25 01:24:34;;;;;;;;;;;15.40;99.90;;;;;;5074827;28;20032;-62
2022/10/25 01:27:02;;;;;;;6.97;5.43;;;15.50;99.90;;;;;;5074302;28;19973;-62
2022/10/25 01:29:47;;;;;;;7.20;5.53;;;15.40;99.90;;;;;;5074008;28;20518;-62
2022/10/25 01:32:21;;;;;;;7.38;4.95;;;15.40;99.90;;;;;;5074070;28;20028;-63
2022/10/25 01:35:01;;;;;;;12.50;6.50;;;15.40;99.90;;;;;;5074116;28;20078;-62
2022/10/25 01:37:50;;;;;;;9.48;7.13;;;15.40;99.90;;;;;;5073987;28;20052;-62
2022/10/25 01:40:40;;;;;;;9.15;5.43;;;15.20;99.90;;;;;;5074016;28;20020;-63
2022/10/25 01:43:20;;;;;;;8.38;5.57;;;15.20;99.90;;;;;;5073935;28;20028;-63
2022/10/25 01:45:54;;;;;;;8.10;5.75;;;15.20;99.90;;;;;;5073838;28;20020;-62
2022/10/25 01:48:32;;;;;;;8.32;5.68;;;15.20;99.90;;;;;;5073956;28;20020;-63
2022/10/25 01:51:08;;;;;;;9.05;5.68;;;15.20;99.90;;;;;;5073599;28;20027;-63
2022/10/25 01:53:46;;;;;;;9.82;6.63;;;15.20;99.90;;;;;;5073889;28;20023;-62
2022/10/25 01:56:17;;;;;;;13.32;8.45;;;15.10;99.90;;;;;;5073471;28;20178;-63
2022/10/25 01:58:56;;;;;;;12.25;8.60;;;14.90;99.90;;;;;;5073598;28;20031;-63
2022/10/25 02:01:36;;;;;;;11.13;7.95;;;14.80;99.90;;;;;;5073622;28;20017;-63
2022/10/25 02:04:31;;;;;;;12.05;8.55;;;14.80;99.90;;;;;;5073506;28;20024;-63
2022/10/25 02:07:24;;;;;;;10.32;7.10;;;14.90;99.90;;;;;;5072963;28;20038;-62
2022/10/25 02:10:02;;;;;;;9.93;6.82;;;14.80;99.90;;;;;;5073446;28;20481;-62
2022/10/25 02:12:41;;;;;;;7.57;6.53;;;14.80;99.90;;;;;;5073531;28;20055;-63
2022/10/25 02:15:12;;;;;;;11.35;7.35;;;14.80;99.90;;;;;;5073323;28;20025;-62
2022/10/25 02:17:45;;;;;;;15.23;9.48;;;14.70;99.90;;;;;;5073556;28;20017;-62
2022/10/25 02:20:14;;;;;;;;;;;14.70;99.90;;;;;;5073731;28;20093;-62
2022/10/25 02:22:40;;;;;;;9.02;6.82;;;14.60;99.90;;;;;;5073335;28;19905;-62
2022/10/25 02:25:07;;;;;;;9.40;6.68;;;14.60;99.90;;;;;;5073480;28;20118;-63
2022/10/25 02:27:35;;;;;;;7.63;6.05;;;14.60;99.90;;;;;;5073534;28;20031;-62
2022/10/25 02:30:02;;;;;;;6.78;5.53;;;14.60;99.90;;;;;;5073022;28;20410;-63
2022/10/25 02:32:29;;;;;;;7.22;4.93;;;14.70;99.90;;;;;;5073374;28;20114;-62
2022/10/25 02:34:54;;;;;;;11.70;6.05;;;14.70;99.90;;;;;;5072987;28;20467;-63
2022/10/25 02:37:20;;;;;;;11.85;6.10;;;14.70;99.90;;;;;;5073127;28;20190;-62
2022/10/25 02:39:47;;;;;;;8.50;5.65;;;14.70;99.90;;;;;;5073318;28;20016;-63
2022/10/25 02:42:12;;;;;;;6.88;5.10;;;14.60;99.90;;;;;;5073184;28;20058;-63
2022/10/25 02:44:38;;;;;;;6.25;5.28;;;14.50;99.90;;;;;;5073101;28;20059;-64
2022/10/25 02:47:04;;;;;;;4.82;3.92;;;14.50;99.90;;;;;;5073104;28;20058;-62
2022/10/25 02:49:29;;;;;;;7.45;4.90;;;14.50;99.90;;;;;;5072982;28;20032;-62
2022/10/25 02:51:55;;;;;;;6.07;4.80;;;14.50;99.90;;;;;;5072944;28;20031;-62
2022/10/25 02:54:21;;;;;;;6.75;4.35;;;14.50;99.90;;;;;;5072977;28;20033;-62
2022/10/25 02:56:51;;;;;;;5.97;4.18;;;14.40;99.90;;;;;;5073017;28;20022;-63
2022/10/25 02:59:17;;;;;;;6.57;4.13;;;14.50;99.90;;;;;;5072961;28;20382;-61
2022/10/25 03:01:42;;;;;;;8.95;5.60;;;14.40;99.90;;;;;;5072983;28;20035;-62
2022/10/25 03:04:08;;;;;;;6.40;4.72;;;14.40;99.90;;;;;;5072795;28;20025;-63
2022/10/25 03:06:34;;;;;;;5.22;4.22;;;14.40;99.90;;;;;;5072997;28;20048;-63
2022/10/25 03:09:00;;;;;;;8.18;5.05;;;14.40;99.90;;;;;;5072824;28;20056;-63
2022/10/25 03:11:25;;;;;;;7.35;5.28;;;14.40;99.90;;;;;;5072907;28;20031;-62
2022/10/25 03:13:51;;;;;;;7.30;5.15;;;14.30;99.90;;;;;;5072849;28;20379;-63
2022/10/25 03:16:17;;;;;;;5.60;4.13;;;14.30;99.90;;;;;;5072728;28;20024;-62
2022/10/25 03:18:42;;;;;;;4.57;3.72;;;14.30;99.90;;;;;;5073496;28;20032;-63
2022/10/25 03:21:08;;;;;;;6.10;4.20;;;14.30;99.90;;;;;;5076938;28;20073;-62
2022/10/25 03:23:34;;;;;;;6.95;4.90;;;14.30;99.90;;;;;;5076791;28;20378;-63
2022/10/25 03:26:00;;;;;;;6.53;5.00;;;14.30;99.90;;;;;;5076402;28;20028;-61
2022/10/25 03:28:27;;;;;;;6.93;4.25;;;14.20;99.90;;;;;;5076507;28;20024;-62
2022/10/25 03:30:54;;;;;;;7.47;4.45;;;14.20;99.90;;;;;;5076205;28;20055;-63
2022/10/25 03:33:19;;;;;;;7.53;4.97;;;14.20;99.90;;;;;;5076259;28;20074;-64
2022/10/25 03:35:49;;;;;;;6.35;4.00;;;14.20;99.90;;;;;;5076195;28;20032;-63
2022/10/25 03:38:15;;;;;;;5.22;4.15;;;14.10;99.90;;;;;;5076505;28;20025;-63
2022/10/25 03:40:41;;;;;;;4.25;3.25;;;14.10;99.90;;;;;;5076550;28;20031;-63
2022/10/25 03:43:06;;;;;;;5.82;3.47;;;14.10;99.90;;;;;;5076393;28;20047;-64
2022/10/25 03:45:32;;;;;;;6.32;3.80;;;14.20;99.90;;;;;;5076100;28;20028;-63
2022/10/25 03:47:58;;;;;;;7.50;4.25;;;14.10;99.90;;;;;;5076097;28;20081;-62
2022/10/25 03:50:23;;;;;;;7.53;4.10;;;14.10;99.90;;;;;;5076130;28;20071;-63
2022/10/25 03:52:49;;;;;;;9.02;4.68;;;14.10;99.90;;;;;;5076111;28;20028;-62
2022/10/25 03:55:15;;;;;;;6.72;4.13;;;14.10;99.90;;;;;;5075897;28;20033;-62
2022/10/25 03:57:40;;;;;;;4.28;3.10;;;14.10;99.90;;;;;;5076217;28;20359;-63
2022/10/25 04:00:07;;;;;;;5.30;3.53;;;14.10;99.90;;;;;;5075809;28;20025;-62
2022/10/25 04:02:32;;;;;;;4.88;3.35;;;14.10;99.90;;;;;;5075779;28;20017;-62
2022/10/25 04:04:58;;;;;;;8.13;4.63;;;14.10;99.90;;;;;;5076154;28;20031;-62
2022/10/25 04:07:24;;;;;;;5.13;3.63;;;14.10;99.90;;;;;;5075891;28;20107;-63
2022/10/25 04:09:49;;;;;;;4.55;3.85;;;14.00;99.90;;;;;;5075642;28;20026;-63
2022/10/25 04:12:15;;;;;;;10.88;4.78;;;14.10;99.90;;;;;;5076033;28;20029;-63
2022/10/25 04:14:41;;;;;;;5.05;3.75;;;14.10;99.90;;;;;;5075391;28;20111;-62
2022/10/25 04:17:06;;;;;;;4.07;3.65;;;14.00;99.90;;;;;;5075641;28;20104;-63
2022/10/25 04:19:32;;;;;;;5.75;4.32;;;14.00;99.90;;;;;;5075481;28;20116;-63
2022/10/25 04:21:58;;;;;;;14.32;11.40;;;14.00;99.90;;;;;;5075600;28;20052;-63
2022/10/25 04:24:23;;;;;;;10.32;7.75;;;14.00;99.90;;;;;;5075494;28;20056;-62
2022/10/25 04:26:49;;;;;;;8.38;7.15;;;13.90;99.90;;;;;;5075328;28;20081;-61
2022/10/25 04:29:16;;;;;;;6.88;6.18;;;13.90;99.90;;;;;;5074468;28;20072;-62
2022/10/25 04:31:42;;;;;;;7.07;5.97;;;13.90;99.90;;;;;;5075458;28;20055;-63
2022/10/25 04:34:07;;;;;;;6.50;5.50;;;13.90;99.90;;;;;;5075152;28;20060;-62
2022/10/25 04:36:33;;;;;;;6.65;5.95;;;13.90;99.90;;;;;;5075242;28;20024;-62
2022/10/25 04:38:59;;;;;;;5.53;4.80;;;14.00;99.90;;;;;;5075251;28;20028;-62
2022/10/25 04:41:24;;;;;;;5.28;4.55;;;14.00;99.90;;;;;;5075053;28;20107;-63
2022/10/25 04:43:51;;;;;;;7.85;5.60;;;14.10;99.90;;;;;;5075041;28;20356;-63
2022/10/25 04:46:17;;;;;;;4.95;4.43;;;14.10;99.90;;;;;;5075042;28;20538;-63
2022/10/25 04:48:42;;;;;;;7.93;5.43;;;14.10;99.90;;;;;;5075029;28;20147;-62
2022/10/25 04:51:09;;;;;;;6.43;4.82;;;14.20;99.90;;;;;;5074909;28;20070;-62
2022/10/25 04:53:36;;;;;;;8.27;5.10;;;14.20;99.90;;;;;;5074261;28;20024;-62
2022/10/25 04:56:04;;;;;;;6.68;4.90;;;14.20;99.90;;;;;;5074512;28;20510;-62
2022/10/25 04:58:31;;;;;;;6.07;4.97;;;14.20;99.90;;;;;;5074576;28;20103;-63
2022/10/25 05:01:01;;;;;;;5.88;4.30;;;14.20;99.90;;;;;;5074857;28;20028;-62
2022/10/25 05:03:28;;;;;;;7.80;5.10;;;14.20;99.90;;;;;;5074797;28;20024;-63
2022/10/25 05:05:53;;;;;;;6.18;4.07;;;14.20;99.90;;;;;;5074988;28;20121;-63
2022/10/25 05:08:19;;;;;;;7.68;5.57;;;14.20;99.90;;;;;;5074453;28;20025;-63
2022/10/25 05:10:55;;;;;;;8.23;5.95;;;14.20;99.90;;;;;;5074467;28;20024;-63
2022/10/25 05:13:20;;;;;;;12.15;8.70;;;14.20;99.90;;;;;;5073879;28;20020;-63
2022/10/25 05:15:56;;;;;;;18.50;11.65;;;14.20;99.90;;;;;;5065715;28;20447;-63
2022/10/25 05:18:23;;;;;;;18.05;12.40;;;14.20;99.90;;;;;;5070504;28;20052;-63
2022/10/25 05:20:53;;;;;;;14.55;10.55;;;14.20;99.90;;;;;;5064323;28;20021;-63
2022/10/25 05:23:19;;;;;;;17.75;12.10;;;14.20;99.90;;;;;;5064554;28;20021;-63
2022/10/25 05:29:08;;;;;;;26.60;16.40;;;14.20;99.90;;;;;;5063398;28;20040;-63
2022/10/25 05:31:34;;;;;;;18.05;13.73;;;14.30;99.90;;;;;;5062159;28;20025;-65
2022/10/25 05:34:00;;;;;;;39.80;27.10;;;14.30;99.90;;;;;;5059939;28;20475;-64
2022/10/25 05:36:28;;;;;;;62.17;42.10;;;14.30;99.90;;;;;;5051774;28;20406;-63
2022/10/25 05:38:54;;;;;;;38.20;26.52;;;14.20;99.90;;;;;;5052070;28;20447;-65
2022/10/25 05:41:20;;;;;;;29.02;23.15;;;14.20;99.90;;;;;;5051183;28;20017;-64
2022/10/25 05:43:46;;;;;;;25.65;20.20;;;14.30;99.90;;;;;;5052636;28;20104;-65
2022/10/25 05:46:19;;;;;;;23.23;18.15;;;14.40;99.90;;;;;;5052716;28;20491;-65
2022/10/25 05:48:45;;;;;;;;;;;14.50;99.90;;;;;;5053372;28;20096;-62
2022/10/25 05:51:19;;;;;;;32.45;25.17;;;14.60;99.90;;;;;;5053691;28;19958;-64
2022/10/25 05:53:50;;;;;;;25.63;21.35;;;14.60;99.90;;;;;;5053510;28;20028;-65
2022/10/25 05:56:18;;;;;;;22.90;18.70;;;14.70;99.90;;;;;;5053538;28;20055;-62
2022/10/25 05:58:43;;;;;;;20.67;16.92;;;14.70;99.90;;;;;;5053448;28;20024;-64
2022/10/25 06:01:11;;;;;;;17.92;15.00;;;14.80;99.90;;;;;;5053571;28;20017;-66
2022/10/25 06:03:37;;;;;;;18.65;13.85;;;14.90;99.90;;;;;;5048787;28;20029;-62
2022/10/25 06:06:05;;;;;;;15.82;12.32;;;14.90;99.90;;;;;;5047078;28;20032;-63
2022/10/25 06:08:31;;;;;;;16.10;12.10;;;15.00;99.90;;;;;;5050809;28;20033;-64
2022/10/25 06:11:08;;;;;;;13.40;10.60;;;15.00;99.90;;;;;;5051429;28;20103;-65
2022/10/25 06:13:34;;;;;;;18.00;12.60;;;15.10;99.90;;;;;;5050377;28;20056;-64
2022/10/25 06:16:06;;;;;;;43.88;26.60;;;15.20;99.90;;;;;;5043497;28;20053;-63
2022/10/25 06:18:33;;;;;;;33.38;25.83;;;15.20;99.90;;;;;;5045292;28;20094;-64
2022/10/25 06:21:10;;;;;;;42.47;30.13;;;15.20;99.90;;;;;;5037291;28;20032;-63
2022/10/25 06:23:36;;;;;;;73.43;49.03;;;15.30;99.90;;;;;;5041040;28;20025;-61
2022/10/25 06:26:06;;;;;;;64.88;47.15;;;15.40;99.90;;;;;;5047750;28;20147;-64
2022/10/25 06:28:32;;;;;;;74.18;50.30;;;15.50;99.90;;;;;;5053003;28;20024;-63
2022/10/25 06:31:15;;;;;;;68.22;46.22;;;15.50;99.90;;;;;;5052398;28;20507;-62
2022/10/25 06:33:42;;;;;;;50.70;37.77;;;15.50;99.90;;;;;;5052217;28;20064;-63
2022/10/25 06:36:15;;;;;;;44.95;33.83;;;15.60;99.90;;;;;;5047211;28;20297;-63
2022/10/25 06:38:40;;;;;;;41.35;29.05;;;15.60;99.90;;;;;;5044440;28;20127;-63
2022/10/25 06:41:10;;;;;;;30.73;23.80;;;15.70;99.90;;;;;;5051651;28;20585;-64
2022/10/25 06:43:37;;;;;;;32.65;24.17;;;15.80;99.90;;;;;;5036345;28;20048;-62
2022/10/25 06:46:31;;;;;;;29.48;20.48;;;15.80;99.90;;;;;;5048101;28;20033;-62
2022/10/25 06:48:59;;;;;;;24.58;18.20;;;16.00;99.90;;;;;;5047172;28;20025;-62
2022/10/25 06:51:26;;;;;;;24.10;17.40;;;16.20;99.90;;;;;;5041671;28;20041;-61
2022/10/25 06:53:57;;;;;;;19.73;13.55;;;16.60;99.90;;;;;;5054059;28;20028;-62
2022/10/25 06:56:24;;;;;;;16.80;13.30;;;16.90;99.90;;;;;;5050612;28;20083;-62
2022/10/25 06:58:50;;;;;;;14.90;10.13;;;17.30;99.90;;;;;;5051488;28;20104;-62
2022/10/25 07:01:17;;;;;;;14.07;9.43;;;17.50;99.90;;;;;;5051031;28;20021;-63
2022/10/25 07:03:45;;;;;;;10.73;8.15;;;18.50;99.90;;;;;;5052244;28;20044;-64
2022/10/25 07:06:13;;;;;;;8.48;7.22;;;19.90;99.30;;;;;;5053576;28;20102;-63
2022/10/25 07:08:42;;;;;;;27.27;16.70;;;21.80;92.10;;;;;;5052313;28;20021;-62
2022/10/25 07:11:16;;;;;;;31.92;21.95;;;23.60;69.50;;;;;;5050473;28;20028;-62
2022/10/25 07:13:42;;;;;;;30.17;22.10;;;24.20;66.30;;;;;;5048879;28;20028;-61
2022/10/25 07:16:09;;;;;;;29.58;20.85;;;24.90;63.20;;;;;;5050342;28;20025;-63
2022/10/25 07:18:36;;;;;;;26.02;19.65;;;25.60;58.60;;;;;;5053077;28;20079;-62
2022/10/25 07:21:07;;;;;;;25.95;19.23;;;25.20;57.60;;;;;;5051025;28;20064;-60
2022/10/25 07:23:40;;;;;;;21.60;17.60;;;24.10;57.60;;;;;;5050716;28;20020;-61
2022/10/25 07:26:07;;;;;;;24.90;19.05;;;22.90;60.10;;;;;;5052873;28;20025;-60
2022/10/25 07:28:32;;;;;;;22.13;16.85;;;21.90;63.50;;;;;;5052402;28;20055;-62
2022/10/25 07:30:58;;;;;;;25.73;18.63;;;21.10;67.70;;;;;;5051621;28;20103;-63
2022/10/25 07:33:24;;;;;;;22.65;16.88;;;20.50;74.50;;;;;;5053235;28;20383;-60
2022/10/25 07:35:50;;;;;;;20.25;16.45;;;20.10;81.90;;;;;;5054531;28;20032;-61
2022/10/25 07:38:16;;;;;;;19.52;15.20;;;19.70;87.60;;;;;;5053336;28;20033;-60
2022/10/25 07:40:42;;;;;;;25.40;18.02;;;19.90;90.80;;;;;;5052072;28;20506;-61
2022/10/25 07:43:08;;;;;;;20.85;16.02;;;21.30;78.20;;;;;;5038523;28;20025;-62
2022/10/25 07:45:35;;;;;;;16.38;13.68;;;23.30;70.10;;;;;;5052417;28;20025;-64
2022/10/25 07:48:00;;;;;;;16.23;12.80;;;23.60;63.30;;;;;;5050947;28;20083;-62
2022/10/25 07:50:26;;;;;;;18.85;12.63;;;23.00;63.00;;;;;;5052111;28;20029;-61
2022/10/25 07:52:53;;;;;;;19.25;11.90;;;22.40;65.00;;;;;;5050774;28;20031;-62
2022/10/25 07:55:19;;;;;;;12.43;9.98;;;21.70;66.40;;;;;;5052763;28;20457;-62
2022/10/25 07:57:45;;;;;;;21.02;13.68;;;21.20;70.80;;;;;;5048892;28;20052;-65
2022/10/25 08:00:11;;;;;;;17.45;12.18;;;20.80;73.20;;;;;;5053482;28;20052;-65
2022/10/25 08:02:37;;;;;;;18.75;11.75;;;20.40;86.80;;;;;;5052350;28;20433;-63
2022/10/25 08:05:04;;;;;;;16.05;11.65;;;20.30;83.90;;;;;;5046794;28;20029;-62
2022/10/25 08:07:29;;;;;;;14.55;11.40;;;20.30;83.50;;;;;;5046179;28;20335;-60
2022/10/25 08:09:55;;;;;;;12.52;10.40;;;20.50;85.10;;;;;;5049689;28;20025;-64
2022/10/25 08:12:21;;;;;;;12.98;10.38;;;21.60;84.20;;;;;;5046338;28;20037;-63
2022/10/25 08:14:46;;;;;;;13.70;11.50;;;23.10;70.70;;;;;;5045778;28;20029;-62
2022/10/25 08:17:12;;;;;;;13.60;12.15;;;25.00;64.10;;;;;;5051229;28;20025;-62
2022/10/25 08:19:38;;;;;;;13.63;10.98;;;25.20;59.30;;;;;;5051643;28;20025;-64
2022/10/25 08:22:04;;;;;;;14.73;10.88;;;24.70;60.00;;;;;;5051321;28;20066;-60
2022/10/25 08:24:30;;;;;;;15.00;11.30;;;24.40;61.90;;;;;;5049975;28;20045;-64
2022/10/25 08:26:55;;;;;;;12.98;10.48;;;24.30;63.60;;;;;;5052451;28;20091;-62
2022/10/25 08:29:21;;;;;;;19.58;13.70;;;24.00;62.90;;;;;;5054187;28;20045;-66
2022/10/25 08:31:47;;;;;;;15.43;12.18;;;24.10;61.60;;;;;;5053342;28;20052;-61
2022/10/25 08:34:12;;;;;;;14.10;11.15;;;23.80;65.20;;;;;;5049639;28;22064;-62
2022/10/25 08:36:38;;;;;;;11.88;9.40;;;23.70;65.10;;;;;;5050445;28;20028;-67
2022/10/25 08:39:03;;;;;;;12.18;10.07;;;23.60;64.50;;;;;;5051827;28;20025;-63
2022/10/25 08:41:38;;;;;;;12.82;9.88;;;23.80;65.20;;;;;;5050147;28;20082;-64
2022/10/25 08:44:30;;;;;;;11.50;8.95;;;23.80;69.90;;;;;;5045050;28;20377;-63
2022/10/25 08:47:17;;;;;;;14.43;9.10;;;23.70;66.60;;;;;;5043368;28;20596;-62
2022/10/25 08:49:54;;;;;;;10.57;8.63;;;23.60;68.80;;;;;;5059062;28;20488;-61
2022/10/25 08:52:40;;;;;;;13.05;8.55;;;23.80;64.90;;;;;;5048469;28;20028;-66
2022/10/25 08:55:14;;;;;;;10.88;9.07;;;23.80;64.20;;;;;;5050688;28;20029;-62
2022/10/25 08:57:45;;;;;;;11.60;9.00;;;23.40;64.80;;;;;;5051753;28;20566;-60
2022/10/25 09:00:18;;;;;;;14.23;9.07;;;23.40;64.40;;;;;;5051997;28;20071;-61
2022/10/25 09:03:04;;;;;;;15.68;9.07;;;23.20;64.90;;;;;;5050322;28;20021;-64
2022/10/25 09:06:06;;;;;;;14.63;9.38;;;22.80;66.10;;;;;;5048494;28;20025;-65
2022/10/25 09:08:42;;;;;;;12.13;8.38;;;22.50;68.00;;;;;;5040802;28;20036;-62
2022/10/25 09:11:32;;;;;;;12.13;7.53;;;22.70;69.80;;;;;;5051154;28;20016;-62
2022/10/25 09:14:19;;;;;;;10.32;7.45;;;22.90;69.40;;;;;;5052202;28;20541;-65
2022/10/25 09:16:51;;;;;;;9.60;7.95;;;23.00;68.30;;;;;;5064249;28;20489;-63
2022/10/25 09:19:23;;;;;;;10.48;7.00;;;23.40;68.70;;;;;;5051750;28;20040;-66
2022/10/25 09:21:58;;;;;;;10.85;7.40;;;23.80;66.70;;;;;;5046435;28;20025;-62
2022/10/25 09:24:28;;;;;;;11.73;7.20;;;24.10;64.90;;;;;;5043090;28;20079;-63
2022/10/25 09:27:08;;;;;;;9.85;7.53;;;24.50;65.20;;;;;;5052606;28;20139;-62
2022/10/25 09:29:38;;;;;;;10.75;7.50;;;24.90;64.40;;;;;;5051095;28;20045;-65
2022/10/25 09:32:22;;;;;;;9.90;6.88;;;25.20;62.30;;;;;;5065850;28;20041;-63
2022/10/25 09:34:48;;;;;;;;;;;25.40;61.60;;;;;;5053571;28;20491;-65
2022/10/25 09:37:24;;;;;;;8.43;6.10;;;25.60;61.40;;;;;;5051040;28;19932;-65
2022/10/25 09:39:55;;;;;;;8.85;5.93;;;25.80;60.50;;;;;;5049371;28;20029;-62
2022/10/25 09:42:35;;;;;;;9.98;8.15;;;26.00;60.80;;;;;;5048439;28;20752;-63
2022/10/25 09:45:06;;;;;;;9.95;7.88;;;25.80;60.70;;;;;;5048157;28;20029;-60
2022/10/25 09:47:38;;;;;;;8.77;7.15;;;25.70;62.90;;;;;;5043275;28;20040;-62
2022/10/25 09:50:10;;;;;;;7.22;6.03;;;25.90;62.40;;;;;;5048037;28;20020;-63
2022/10/25 09:53:00;;;;;;;8.80;5.70;;;26.30;60.90;;;;;;5049115;28;20025;-62
2022/10/25 09:55:52;;;;;;;7.25;5.75;;;26.40;58.70;;;;;;5064300;28;20025;-64
2022/10/25 09:58:20;;;;;;;8.85;5.55;;;26.20;59.10;;;;;;5047731;28;20102;-66
2022/10/25 10:00:46;;;;;;;9.18;6.68;;;26.20;60.40;;;;;;5047196;28;20029;-64
2022/10/25 10:03:12;;;;;;;9.23;7.13;;;26.20;59.50;;;;;;5048230;28;20029;-65
2022/10/25 10:05:44;;;;;;;10.48;7.20;;;26.30;59.30;;;;;;5048615;28;20017;-60
2022/10/25 10:08:09;;;;;;;9.98;6.88;;;26.00;59.30;;;;;;5048614;28;20029;-61
2022/10/25 10:10:36;;;;;;;10.93;7.57;;;25.80;61.90;;;;;;5050820;28;20028;-63
2022/10/25 10:13:11;;;;;;;8.85;6.78;;;25.70;60.00;;;;;;5051607;28;20102;-63
2022/10/25 10:15:53;;;;;;;9.88;6.95;;;25.60;60.80;;;;;;5051930;28;20029;-65
2022/10/25 10:18:18;;;;;;;13.35;7.57;;;25.70;60.70;;;;;;5052110;28;20017;-61
2022/10/25 10:21:04;;;;;;;9.25;6.78;;;25.50;60.90;;;;;;5050259;28;20032;-64
2022/10/25 10:23:50;;;;;;;9.95;7.00;;;25.50;61.40;;;;;;5048870;28;20079;-63
2022/10/25 10:26:27;;;;;;;10.60;7.32;;;25.70;61.10;;;;;;5048805;28;20379;-63
2022/10/25 10:29:23;;;;;;;11.05;7.68;;;25.50;61.50;;;;;;5050345;28;20017;-62
2022/10/25 10:32:34;;;;;;;8.32;6.70;;;25.50;61.20;;;;;;5049159;28;20073;-62
2022/10/25 10:35:03;;;;;;;10.43;7.25;;;25.60;61.70;;;;;;5035230;28;20045;-63
2022/10/25 10:37:31;;;;;;;14.38;7.22;;;25.50;61.80;;;;;;5039208;28;20021;-61
2022/10/25 10:40:01;;;;;;;7.15;6.45;;;25.50;62.50;;;;;;5046507;28;20041;-64
2022/10/25 10:42:31;;;;;;;6.95;6.28;;;25.50;63.90;;;;;;5048967;28;20558;-63
2022/10/25 10:45:08;;;;;;;7.80;6.50;;;25.70;62.40;;;;;;5048517;28;20200;-65
2022/10/25 10:47:41;;;;;;;8.30;5.88;;;25.90;62.30;;;;;;5049396;28;20048;-66
2022/10/25 10:50:34;;;;;;;8.40;6.97;;;25.70;62.10;;;;;;5046832;28;20017;-64
2022/10/25 10:53:31;;;;;;;8.15;6.53;;;26.00;62.00;;;;;;5046509;28;20040;-61
2022/10/25 10:56:00;;;;;;;8.48;7.43;;;26.20;60.40;;;;;;5033210;28;20063;-67
2022/10/25 10:58:39;;;;;;;11.68;7.97;;;26.50;60.70;;;;;;5044253;28;20017;-61
2022/10/25 11:01:11;;;;;;;14.32;9.65;;;26.70;60.10;;;;;;5048181;28;20021;-64
2022/10/25 11:03:43;;;;;;;9.27;8.20;;;26.30;61.40;;;;;;5047252;28;20031;-65
2022/10/25 11:06:21;;;;;;;17.75;11.88;;;26.50;61.30;;;;;;5048776;28;20493;-61
2022/10/25 11:08:47;;;;;;;11.68;8.88;;;26.90;59.60;;;;;;5043919;28;20372;-62
2022/10/25 11:11:21;;;;;;;12.20;9.70;;;27.30;59.00;;;;;;5048044;28;20036;-66
2022/10/25 11:13:57;;;;;;;14.00;11.77;;;27.50;58.00;;;;;;5047587;28;20541;-69
2022/10/25 11:16:36;;;;;;;20.05;14.20;;;27.60;58.10;;;;;;5045399;28;20044;-61
2022/10/25 11:19:18;;;;;;;20.13;13.82;;;27.50;58.70;;;;;;5034091;28;20021;-59
2022/10/25 11:21:47;;;;;;;19.48;14.60;;;27.70;58.40;;;;;;5049269;28;20505;-60
2022/10/25 11:24:48;;;;;;;19.17;13.48;;;27.70;57.20;;;;;;5049939;28;20490;-63
2022/10/25 11:27:26;;;;;;;24.90;16.08;;;27.80;57.30;;;;;;5048550;28;20473;-61
2022/10/25 11:30:11;;;;;;;18.45;14.75;;;27.90;55.90;;;;;;5048105;28;20124;-62
2022/10/25 11:33:00;;;;;;;16.98;13.60;;;27.90;56.70;;;;;;5039676;28;20025;-60
2022/10/25 11:35:44;;;;;;;17.35;13.52;;;28.10;59.60;;;;;;5041851;28;20061;-64
2022/10/25 11:38:22;;;;;;;16.38;13.45;;;28.30;57.40;;;;;;5027840;28;20029;-60
2022/10/25 11:40:56;;;;;;;21.63;15.10;;;28.40;57.70;;;;;;5048236;28;20028;-62
2022/10/25 11:43:39;;;;;;;21.65;16.42;;;28.60;55.60;;;;;;5051851;28;20060;-61
2022/10/25 11:46:42;;;;;;;16.73;14.48;;;28.40;56.00;;;;;;5051672;28;20021;-62
2022/10/25 11:49:38;;;;;;;16.42;13.55;;;28.50;56.30;;;;;;5049336;28;20021;-61
2022/10/25 11:52:20;;;;;;;15.32;12.13;;;28.90;55.60;;;;;;5052999;28;20538;-61
2022/10/25 11:55:03;;;;;;;13.05;10.73;;;29.10;57.00;;;;;;5053139;28;20025;-63
2022/10/25 11:57:46;;;;;;;;;;;29.10;53.90;;;;;;5050987;28;20434;-63
2022/10/25 12:00:18;;;;;;;14.73;11.63;;;29.00;55.20;;;;;;5055252;28;19991;-62
2022/10/25 12:03:12;;;;;;;14.13;11.40;;;28.80;55.40;;;;;;5055576;28;20029;-61
2022/10/25 12:05:47;;;;;;;11.23;9.98;;;28.60;56.40;;;;;;5052557;28;20403;-62
2022/10/25 12:08:47;;;;;;;12.68;10.48;;;28.60;55.20;;;;;;5053693;28;20139;-62
2022/10/25 12:11:18;;;;;;;9.38;8.43;;;28.40;56.20;;;;;;5052466;28;20033;-61
2022/10/25 12:13:48;;;;;;;8.45;7.65;;;28.40;55.00;;;;;;5052442;28;20051;-62
2022/10/25 12:16:17;;;;;;;8.60;7.70;;;28.60;54.70;;;;;;5054158;28;20021;-61
2022/10/25 12:18:48;;;;;;;8.15;6.82;;;28.80;54.20;;;;;;5052828;28;20104;-60
2022/10/25 12:21:41;;;;;;;7.30;6.60;;;29.10;56.10;;;;;;5051854;28;20029;-60
2022/10/25 12:24:15;;;;;;;8.15;7.25;;;29.40;52.80;;;;;;5052976;28;20066;-61
2022/10/25 12:26:42;;;;;;;7.90;6.78;;;29.40;52.90;;;;;;5050998;28;20368;-62
2022/10/25 12:29:25;;;;;;;7.03;6.32;;;29.30;53.10;;;;;;5050450;28;20053;-62
2022/10/25 12:31:56;;;;;;;;;;;29.10;53.70;;;;;;5052966;28;20225;-62
2022/10/25 12:34:53;;;;;;;7.00;6.30;;;29.10;51.80;;;;;;5052747;28;19909;-62
2022/10/25 12:37:26;;;;;;;5.85;5.35;;;29.10;52.50;;;;;;5053262;28;20032;-61
2022/10/25 12:39:52;;;;;;;3.90;3.20;;;29.20;51.40;;;;;;5054169;28;20106;-61
2022/10/25 12:42:41;;;;;;;2.45;1.85;;;29.30;49.40;;;;;;5052715;28;20105;-62
2022/10/25 12:45:38;;;;;;;2.00;1.80;;;29.50;48.80;;;;;;5052172;28;20093;-60
2022/10/25 12:48:34;;;;;;;0.98;0.90;;;29.70;48.50;;;;;;5054321;28;20428;-61
2022/10/25 12:51:29;;;;;;;1.45;1.10;;;29.70;47.50;;;;;;5069000;28;20057;-60
2022/10/25 12:54:04;;;;;;;1.33;0.80;;;29.70;48.40;;;;;;5053588;28;20387;-61
2022/10/25 12:56:59;;;;;;;1.45;0.90;;;29.80;47.80;;;;;;5051543;28;20116;-60
2022/10/25 12:59:35;;;;;;;2.15;0.77;;;29.90;47.70;;;;;;5050876;28;20021;-61
2022/10/25 13:02:43;;;;;;;1.10;0.80;;;29.80;47.10;;;;;;5052785;28;20028;-61
2022/10/25 13:05:28;;;;;;;1.27;0.73;;;29.50;47.60;;;;;;5053033;28;20427;-61
2022/10/25 13:07:57;;;;;;;0.70;0.70;;;29.70;47.70;;;;;;5052430;28;20037;-61
2022/10/25 13:10:24;;;;;;;0.98;0.70;;;29.80;47.80;;;;;;5052012;28;20044;-61